DLH5UY EDDF-EDDL
Flight info
| Callsign | DLH5UY |
|---|---|
| Flight time | 0h 37m |
| Altitude | 24000 |
| Route | MARUN6E MARUN Y152 ARPEG Z850 ADEMI T854 DOMUX DOMUX1A |
| Aircraft | A319/M-SDE2E3FGIJ1LORWXYZ/HB1 |
Departure
| Time | 2026-04-15 14:37 |
|---|---|
| Airport | Frankfurt Main Airport (EDDF) |
Arrival
| Time | 2026-04-15 15:14 |
|---|---|
| Airport | Düsseldorf Airport (EDDL) |
| Time | Latitude | Longitude | Altitude | Speed | Heading |
|---|---|---|---|---|---|
| 2026-04-15 14:01 | 50.04821 | 8.58502 | 363 ft | 0 kts | 159° |
| 2026-04-15 14:25 | 50.04829 | 8.58497 | 362 ft | 4 kts | 159° |
| 2026-04-15 14:25 | 50.04854 | 8.58483 | 363 ft | 4 kts | 159° |
| 2026-04-15 14:25 | 50.04874 | 8.58468 | 364 ft | 4 kts | 110° |
| 2026-04-15 14:25 | 50.04872 | 8.58434 | 364 ft | 3 kts | 69° |
| 2026-04-15 14:26 | 50.04868 | 8.58419 | 360 ft | 1 kts | 69° |
| 2026-04-15 14:26 | 50.04868 | 8.58420 | 360 ft | 0 kts | 69° |
| 2026-04-15 14:29 | 50.04871 | 8.58429 | 364 ft | 3 kts | 69° |
| 2026-04-15 14:29 | 50.04890 | 8.58507 | 363 ft | 11 kts | 69° |
| 2026-04-15 14:30 | 50.04915 | 8.58622 | 360 ft | 12 kts | 82° |
| 2026-04-15 14:30 | 50.04866 | 8.58695 | 362 ft | 9 kts | 159° |
| 2026-04-15 14:30 | 50.04862 | 8.58697 | 363 ft | 0 kts | 159° |
| 2026-04-15 14:35 | 50.04845 | 8.58707 | 363 ft | 11 kts | 159° |
| 2026-04-15 14:35 | 50.04741 | 8.58767 | 371 ft | 16 kts | 163° |
| 2026-04-15 14:35 | 50.04635 | 8.58760 | 370 ft | 15 kts | 191° |
| 2026-04-15 14:35 | 50.04549 | 8.58672 | 371 ft | 15 kts | 218° |
| 2026-04-15 14:36 | 50.04476 | 8.58550 | 370 ft | 16 kts | 249° |
| 2026-04-15 14:36 | 50.04426 | 8.58345 | 373 ft | 38 kts | 250° |
| 2026-04-15 14:36 | 50.04236 | 8.57535 | 365 ft | 117 kts | 249° |
| 2026-04-15 14:36 | 50.03878 | 8.56040 | 421 ft | 168 kts | 250° |
| 2026-04-15 14:37 | 50.03464 | 8.54296 | 1085 ft | 172 kts | 249° |
| 2026-04-15 14:37 | 50.03046 | 8.52552 | 1859 ft | 176 kts | 248° |
| 2026-04-15 14:37 | 50.02554 | 8.50684 | 2300 ft | 197 kts | 239° |
| 2026-04-15 14:37 | 50.01460 | 8.49391 | 2881 ft | 206 kts | 198° |
| 2026-04-15 14:38 | 50.00074 | 8.48805 | 3672 ft | 206 kts | 194° |
| 2026-04-15 14:38 | 49.98689 | 8.48210 | 4479 ft | 207 kts | 194° |
| 2026-04-15 14:38 | 49.97292 | 8.47601 | 5232 ft | 210 kts | 195° |
| 2026-04-15 14:38 | 49.95883 | 8.46981 | 6016 ft | 211 kts | 196° |
| 2026-04-15 14:39 | 49.94429 | 8.46325 | 6549 ft | 227 kts | 197° |
| 2026-04-15 14:39 | 49.92866 | 8.45607 | 7077 ft | 244 kts | 197° |
| 2026-04-15 14:39 | 49.91300 | 8.44470 | 7954 ft | 250 kts | 220° |
| 2026-04-15 14:39 | 49.90310 | 8.42311 | 8866 ft | 255 kts | 251° |
| 2026-04-15 14:40 | 49.90189 | 8.39576 | 9824 ft | 260 kts | 282° |
| 2026-04-15 14:40 | 49.91048 | 8.37100 | 10706 ft | 268 kts | 314° |
| 2026-04-15 14:40 | 49.92670 | 8.35577 | 11401 ft | 285 kts | 335° |
| 2026-04-15 14:40 | 49.94575 | 8.34344 | 11767 ft | 309 kts | 336° |
| 2026-04-15 14:41 | 49.96629 | 8.33026 | 12206 ft | 328 kts | 336° |
| 2026-04-15 14:41 | 49.98761 | 8.31652 | 12965 ft | 335 kts | 335° |
| 2026-04-15 14:41 | 50.00923 | 8.30247 | 13816 ft | 339 kts | 335° |
| 2026-04-15 14:41 | 50.03174 | 8.29090 | 14570 ft | 345 kts | 346° |
| 2026-04-15 14:42 | 50.05589 | 8.28779 | 15309 ft | 352 kts | 1° |
| 2026-04-15 14:42 | 50.08020 | 8.29424 | 16041 ft | 359 kts | 15° |
| 2026-04-15 14:42 | 50.10401 | 8.30674 | 16772 ft | 363 kts | 17° |
| 2026-04-15 14:42 | 50.12805 | 8.31949 | 17498 ft | 367 kts | 17° |
| 2026-04-15 14:43 | 50.15242 | 8.33233 | 18190 ft | 372 kts | 17° |
| 2026-04-15 14:43 | 50.17713 | 8.34527 | 18843 ft | 376 kts | 16° |
| 2026-04-15 14:43 | 50.20202 | 8.35828 | 19474 ft | 380 kts | 16° |
| 2026-04-15 14:43 | 50.22715 | 8.37146 | 20128 ft | 382 kts | 16° |
| 2026-04-15 14:44 | 50.25247 | 8.38476 | 20781 ft | 385 kts | 16° |
| 2026-04-15 14:44 | 50.27802 | 8.39820 | 21435 ft | 388 kts | 16° |
| 2026-04-15 14:44 | 50.30367 | 8.41174 | 22066 ft | 391 kts | 17° |
| 2026-04-15 14:44 | 50.32952 | 8.42562 | 22700 ft | 394 kts | 17° |
| 2026-04-15 14:45 | 50.35556 | 8.43981 | 23331 ft | 398 kts | 17° |
| 2026-04-15 14:45 | 50.38180 | 8.45417 | 23915 ft | 401 kts | 17° |
| 2026-04-15 14:45 | 50.40816 | 8.46866 | 24124 ft | 402 kts | 17° |
| 2026-04-15 14:45 | 50.43436 | 8.48309 | 24179 ft | 392 kts | 17° |
| 2026-04-15 14:46 | 50.45952 | 8.49705 | 24193 ft | 375 kts | 17° |
| 2026-04-15 14:46 | 50.48385 | 8.51033 | 24195 ft | 367 kts | 15° |
| 2026-04-15 14:46 | 50.50806 | 8.52249 | 24196 ft | 365 kts | 14° |
| 2026-04-15 14:46 | 50.53243 | 8.53399 | 24196 ft | 364 kts | 13° |
| 2026-04-15 14:47 | 50.55675 | 8.54521 | 24196 ft | 364 kts | 13° |
| 2026-04-15 14:47 | 50.58107 | 8.55643 | 24201 ft | 364 kts | 13° |
| 2026-04-15 14:47 | 50.60528 | 8.56779 | 24201 ft | 364 kts | 13° |
| 2026-04-15 14:47 | 50.62952 | 8.57933 | 24202 ft | 364 kts | 14° |
| 2026-04-15 14:48 | 50.65374 | 8.59100 | 24197 ft | 364 kts | 14° |
| 2026-04-15 14:48 | 50.67794 | 8.60271 | 24199 ft | 364 kts | 14° |
| 2026-04-15 14:48 | 50.70215 | 8.61445 | 24190 ft | 364 kts | 14° |
| 2026-04-15 14:48 | 50.72635 | 8.62614 | 24199 ft | 364 kts | 14° |
| 2026-04-15 14:49 | 50.75056 | 8.63783 | 24189 ft | 364 kts | 14° |
| 2026-04-15 14:49 | 50.77497 | 8.64784 | 24195 ft | 360 kts | 4° |
| 2026-04-15 14:49 | 50.79977 | 8.64843 | 24193 ft | 355 kts | 349° |
| 2026-04-15 14:49 | 50.82349 | 8.63916 | 24191 ft | 350 kts | 335° |
| 2026-04-15 14:50 | 50.84472 | 8.62106 | 24189 ft | 345 kts | 321° |
| 2026-04-15 14:50 | 50.86234 | 8.59560 | 24184 ft | 342 kts | 309° |
| 2026-04-15 14:50 | 50.87779 | 8.56693 | 24185 ft | 342 kts | 308° |
| 2026-04-15 14:50 | 50.89319 | 8.53815 | 24189 ft | 343 kts | 308° |
| 2026-04-15 14:51 | 50.90855 | 8.50940 | 24184 ft | 343 kts | 308° |
| 2026-04-15 14:51 | 50.92394 | 8.48054 | 24179 ft | 343 kts | 308° |
| 2026-04-15 14:51 | 50.93933 | 8.45167 | 24179 ft | 343 kts | 308° |
| 2026-04-15 14:51 | 50.95472 | 8.42280 | 24180 ft | 343 kts | 308° |
| 2026-04-15 14:52 | 50.97009 | 8.39392 | 24181 ft | 343 kts | 308° |
| 2026-04-15 14:52 | 50.98546 | 8.36500 | 24178 ft | 343 kts | 308° |
| 2026-04-15 14:52 | 51.00082 | 8.33605 | 24182 ft | 343 kts | 308° |
| 2026-04-15 14:52 | 51.01750 | 8.30896 | 24181 ft | 345 kts | 318° |
| 2026-04-15 14:53 | 51.03742 | 8.28760 | 24173 ft | 347 kts | 328° |
| 2026-04-15 14:53 | 51.05855 | 8.26897 | 24186 ft | 347 kts | 328° |
| 2026-04-15 14:53 | 51.07960 | 8.25033 | 24178 ft | 347 kts | 328° |
| 2026-04-15 14:53 | 51.10070 | 8.23159 | 24182 ft | 347 kts | 328° |
| 2026-04-15 14:54 | 51.12179 | 8.21279 | 24179 ft | 347 kts | 328° |
| 2026-04-15 14:54 | 51.14256 | 8.19423 | 24184 ft | 347 kts | 328° |
| 2026-04-15 14:54 | 51.16362 | 8.17539 | 24182 ft | 347 kts | 328° |
| 2026-04-15 14:54 | 51.18496 | 8.15628 | 24179 ft | 347 kts | 328° |
| 2026-04-15 14:55 | 51.20606 | 8.13741 | 24184 ft | 354 kts | 328° |
| 2026-04-15 14:55 | 51.22815 | 8.11758 | 24175 ft | 373 kts | 328° |
| 2026-04-15 14:55 | 51.25080 | 8.09724 | 24180 ft | 382 kts | 328° |
| 2026-04-15 14:55 | 51.27432 | 8.07617 | 24152 ft | 380 kts | 328° |
| 2026-04-15 14:56 | 51.29707 | 8.05587 | 23575 ft | 371 kts | 328° |
| 2026-04-15 14:56 | 51.31921 | 8.03610 | 22767 ft | 367 kts | 328° |
| 2026-04-15 14:56 | 51.34137 | 8.01624 | 21949 ft | 363 kts | 328° |
| 2026-04-15 14:56 | 51.36328 | 7.99654 | 21161 ft | 359 kts | 328° |
| 2026-04-15 14:57 | 51.38497 | 7.97701 | 20398 ft | 356 kts | 328° |
| 2026-04-15 14:57 | 51.40658 | 7.95748 | 19800 ft | 348 kts | 327° |
| 2026-04-15 14:57 | 51.42734 | 7.93874 | 19334 ft | 337 kts | 327° |
| 2026-04-15 14:57 | 51.44677 | 7.91892 | 18874 ft | 324 kts | 316° |
| 2026-04-15 14:58 | 51.46098 | 7.89218 | 18438 ft | 318 kts | 298° |
| 2026-04-15 14:58 | 51.46918 | 7.85904 | 17956 ft | 315 kts | 280° |
| 2026-04-15 14:58 | 51.47037 | 7.82446 | 17541 ft | 311 kts | 263° |
| 2026-04-15 14:58 | 51.46556 | 7.79131 | 17124 ft | 309 kts | 253° |
| 2026-04-15 14:59 | 51.45964 | 7.75822 | 16719 ft | 308 kts | 253° |
| 2026-04-15 14:59 | 51.45371 | 7.72526 | 16307 ft | 307 kts | 253° |
| 2026-04-15 14:59 | 51.44781 | 7.69243 | 15937 ft | 306 kts | 254° |
| 2026-04-15 14:59 | 51.44194 | 7.65985 | 15573 ft | 304 kts | 254° |
| 2026-04-15 15:00 | 51.43609 | 7.62734 | 15201 ft | 303 kts | 254° |
| 2026-04-15 15:00 | 51.43026 | 7.59499 | 14837 ft | 302 kts | 253° |
| 2026-04-15 15:00 | 51.42443 | 7.56273 | 14469 ft | 301 kts | 253° |
| 2026-04-15 15:00 | 51.41708 | 7.53143 | 14108 ft | 300 kts | 243° |
| 2026-04-15 15:01 | 51.40606 | 7.50350 | 13879 ft | 295 kts | 237° |
| 2026-04-15 15:01 | 51.39472 | 7.47633 | 13638 ft | 292 kts | 237° |
| 2026-04-15 15:01 | 51.38353 | 7.44939 | 13378 ft | 290 kts | 237° |
| 2026-04-15 15:01 | 51.37242 | 7.42260 | 13015 ft | 288 kts | 237° |
| 2026-04-15 15:02 | 51.36136 | 7.39595 | 12639 ft | 287 kts | 237° |
| 2026-04-15 15:02 | 51.35033 | 7.36939 | 12272 ft | 286 kts | 237° |
| 2026-04-15 15:02 | 51.33935 | 7.34297 | 11892 ft | 285 kts | 237° |
| 2026-04-15 15:02 | 51.32838 | 7.31669 | 11513 ft | 284 kts | 237° |
| 2026-04-15 15:03 | 51.31744 | 7.29057 | 11144 ft | 282 kts | 237° |
| 2026-04-15 15:03 | 51.30655 | 7.26457 | 10778 ft | 281 kts | 237° |
| 2026-04-15 15:03 | 51.29571 | 7.23872 | 10430 ft | 279 kts | 237° |
| 2026-04-15 15:03 | 51.28497 | 7.21308 | 10012 ft | 276 kts | 237° |
| 2026-04-15 15:04 | 51.27457 | 7.18828 | 9838 ft | 260 kts | 237° |
| 2026-04-15 15:04 | 51.26515 | 7.16466 | 9631 ft | 246 kts | 244° |
| 2026-04-15 15:04 | 51.26193 | 7.13851 | 9245 ft | 241 kts | 273° |
| 2026-04-15 15:04 | 51.26716 | 7.11337 | 8768 ft | 242 kts | 302° |
| 2026-04-15 15:05 | 51.27933 | 7.09469 | 8260 ft | 245 kts | 321° |
| 2026-04-15 15:05 | 51.29319 | 7.07876 | 7750 ft | 246 kts | 328° |
| 2026-04-15 15:05 | 51.30954 | 7.07161 | 7266 ft | 248 kts | 359° |
| 2026-04-15 15:05 | 51.32616 | 7.07821 | 6780 ft | 249 kts | 29° |
| 2026-04-15 15:06 | 51.34905 | 7.11882 | 5764 ft | 246 kts | 54° |
| 2026-04-15 15:06 | 51.35931 | 7.14070 | 5299 ft | 245 kts | 56° |
| 2026-04-15 15:06 | 51.36974 | 7.16197 | 4808 ft | 243 kts | 46° |
| 2026-04-15 15:07 | 51.38421 | 7.17535 | 4353 ft | 242 kts | 13° |
| 2026-04-15 15:07 | 51.40070 | 7.17456 | 3923 ft | 239 kts | 340° |
| 2026-04-15 15:07 | 51.41526 | 7.16243 | 3466 ft | 236 kts | 320° |
| 2026-04-15 15:07 | 51.42624 | 7.14323 | 2992 ft | 233 kts | 298° |
| 2026-04-15 15:08 | 51.43071 | 7.12795 | 2975 ft | 228 kts | 284° |
| 2026-04-15 15:08 | 51.43328 | 7.10295 | 3012 ft | 227 kts | 266° |
| 2026-04-15 15:08 | 51.43082 | 7.07832 | 3012 ft | 219 kts | 249° |
| 2026-04-15 15:08 | 51.42434 | 7.05769 | 3011 ft | 196 kts | 232° |
| 2026-04-15 15:09 | 51.41639 | 7.04081 | 3012 ft | 186 kts | 230° |
| 2026-04-15 15:09 | 51.40867 | 7.02442 | 3041 ft | 183 kts | 231° |
| 2026-04-15 15:09 | 51.40106 | 7.00826 | 3020 ft | 181 kts | 230° |
| 2026-04-15 15:09 | 51.39346 | 6.99217 | 3020 ft | 181 kts | 230° |
| 2026-04-15 15:10 | 51.38590 | 6.97615 | 3012 ft | 181 kts | 230° |
| 2026-04-15 15:10 | 51.37827 | 6.96000 | 2858 ft | 182 kts | 231° |
| 2026-04-15 15:10 | 51.37072 | 6.94403 | 2650 ft | 179 kts | 230° |
| 2026-04-15 15:10 | 51.36338 | 6.92849 | 2415 ft | 170 kts | 230° |
| 2026-04-15 15:11 | 51.35651 | 6.91395 | 2194 ft | 157 kts | 229° |
| 2026-04-15 15:11 | 51.35026 | 6.90071 | 2004 ft | 141 kts | 229° |
| 2026-04-15 15:11 | 51.34459 | 6.88875 | 1810 ft | 130 kts | 229° |
| 2026-04-15 15:11 | 51.33924 | 6.87747 | 1640 ft | 127 kts | 229° |
| 2026-04-15 15:12 | 51.33397 | 6.86637 | 1474 ft | 124 kts | 229° |
| 2026-04-15 15:12 | 51.32881 | 6.85550 | 1307 ft | 122 kts | 227° |
| 2026-04-15 15:12 | 51.32364 | 6.84462 | 1143 ft | 123 kts | 229° |
| 2026-04-15 15:12 | 51.31852 | 6.83383 | 967 ft | 124 kts | 229° |
| 2026-04-15 15:13 | 51.31323 | 6.82269 | 803 ft | 123 kts | 229° |
| 2026-04-15 15:13 | 51.30801 | 6.81171 | 640 ft | 126 kts | 227° |
| 2026-04-15 15:13 | 51.30266 | 6.80039 | 470 ft | 127 kts | 230° |
| 2026-04-15 15:13 | 51.29733 | 6.78922 | 292 ft | 128 kts | 230° |
| 2026-04-15 15:14 | 51.29198 | 6.77792 | 156 ft | 125 kts | 230° |
| 2026-04-15 15:14 | 51.28733 | 6.76836 | 132 ft | 90 kts | 233° |
| 2026-04-15 15:14 | 51.28471 | 6.76273 | 128 ft | 39 kts | 233° |
| 2026-04-15 15:14 | 51.28352 | 6.76066 | 129 ft | 21 kts | 207° |
| 2026-04-15 15:15 | 51.28207 | 6.76084 | 127 ft | 22 kts | 157° |
| 2026-04-15 15:15 | 51.28184 | 6.76250 | 128 ft | 15 kts | 133° |
| 2026-04-15 15:15 | 51.28122 | 6.76378 | 128 ft | 15 kts | 112° |
| 2026-04-15 15:15 | 51.28111 | 6.76502 | 130 ft | 8 kts | 96° |
| 2026-04-15 15:16 | 51.28110 | 6.76528 | 131 ft | 1 kts | 95° |
| 2026-04-15 15:16 | 51.28109 | 6.76537 | 131 ft | 0 kts | 95° |